CSUN Campus Station - National Weather Service Data Page - PST Time




                Date      RH     Dew  Seasonal     Current   Max Air   Min Air    Wind    Wind    Wind    Gust     Bar    Rain
                Time       %   Point      Rain    Air Temp     Since     Since   Speed    Gust     Dir     Dir   Press   Total
                               Deg F    Inches       Deg F  Midnight  Midnight     MPH     MPH                      mb  Inches
------------------------------------------------------------------------------------------------------------------------------
    07/25/2015 00:00      63    56.9      9.78        69.7      92.0      64.8       0       0       0     146    1015    0.00
    07/25/2015 00:10      64    56.8      9.78        69.6      69.8      69.4       0       0       0     146    1015    0.00
    07/25/2015 00:20      65    56.9      9.78        69.3      69.8      69.1       0       0       0     230    1015    0.00
    07/25/2015 00:30      65    56.8      9.78        69.0      69.8      68.8       0       0       0     230    1015    0.00
    07/25/2015 00:40      66    56.6      9.78        68.7      69.8      68.2       0       0       0     306    1015    0.00
    07/25/2015 00:50      65    56.9      9.78        68.7      69.8      68.1       1       3      82      84    1015    0.00
    07/25/2015 01:00      65    57.0      9.78        69.3      69.8      68.1       1       3      97      98    1015    0.00
    07/25/2015 01:10      66    56.9      9.78        69.0      69.8      68.1       0       1     123     133    1015    0.00
    07/25/2015 01:20      69    57.5      9.78        68.8      69.8      68.1       1       4      70      83    1015    0.00
    07/25/2015 01:30      73    59.4      9.78        69.3      69.8      68.1       2       4      83      83    1016    0.00
    07/25/2015 01:40      76    60.7      9.78        69.1      69.8      68.1       2       4      76      82    1016    0.00
    07/25/2015 01:50      77    61.1      9.78        69.0      69.8      68.1       2       3      61      75    1016    0.00
    07/25/2015 02:00      77    61.2      9.78        68.8      69.8      68.1       2       4      32      42    1016    0.00
    07/25/2015 02:10      77    61.1      9.78        68.7      69.8      68.1       2       3      40      61    1016    0.00
    07/25/2015 02:20      77    61.0      9.78        68.6      69.8      68.1       1       3      33      40    1015    0.00
    07/25/2015 02:30      78    61.0      9.78        68.4      69.8      68.1       2       4      58      32    1015    0.00
    07/25/2015 02:40      78    61.1      9.78        68.3      69.8      68.0       1       3      90      78    1015    0.00
    07/25/2015 02:50      78    61.0      9.78        68.1      69.8      67.8       1       4      83      84    1015    0.00
    07/25/2015 03:00      79    61.1      9.78        67.9      69.8      67.7       1       3      79      60    1015    0.00
    07/25/2015 03:10      79    61.1      9.78        67.7      69.8      67.5       1       3      64      67    1015    0.00
    07/25/2015 03:20      80    61.0      9.78        67.5      69.8      67.2       0       2      37      42    1015    0.00
    07/25/2015 03:30      80    61.0      9.78        67.2      69.8      66.9       0       2      32      30    1015    0.00
    07/25/2015 03:40      81    60.7      9.78        66.7      69.8      66.4       0       1     254     253    1015    0.00
    07/25/2015 03:50      82    60.6      9.78        66.3      69.8      66.1       0       0     282     279    1015    0.00
    07/25/2015 04:00      82    60.6      9.78        66.1      69.8      65.9       0       1     288     290    1015    0.00
    07/25/2015 04:10      82    60.4      9.78        66.0      69.8      65.8       0       1     316     317    1015    0.00
    07/25/2015 04:20      82    60.2      9.78        65.8      69.8      65.5       0       0       0     316    1015    0.00
    07/25/2015 04:30      82    60.1      9.78        65.6      69.8      65.5       0       1     328     329    1015    0.00
    07/25/2015 04:40      82    60.1      9.78        65.7      69.8      65.5       0       0     332     329    1015    0.00
    07/25/2015 04:50      81    60.0      9.78        65.7      69.8      65.5       0       0       0       9    1015    0.00
    07/25/2015 05:00      81    59.7      9.78        65.6      69.8      65.5       0       0     345     339    1015    0.00
    07/25/2015 05:10      80    59.5      9.78        65.6      69.8      65.4       0       0       6       7    1015    0.00
    07/25/2015 05:20      78    59.0      9.78        65.6      69.8      65.4       0       0     322     334    1015    0.00
    07/25/2015 05:30      78    58.5      9.78        65.5      69.8      65.2       0       0     326     330    1015    0.00
    07/25/2015 05:40      79    58.4      9.78        65.3      69.8      65.0       0       0       0      21    1016    0.00
    07/25/2015 05:50      79    58.7      9.78        65.3      69.8      65.0       0       1      43      44    1016    0.00
    07/25/2015 06:00      78    59.4      9.78        66.1      69.8      65.0       0       2      39      29    1016    0.00
    07/25/2015 06:10      69    60.2      9.78        68.9      70.5      65.0       0       2      49      43    1016    0.00
    07/25/2015 06:20      69    60.1      9.78        70.8      71.3      65.0       1       2      39      48    1016    0.00
    07/25/2015 06:30      68    60.4      9.78        71.2      71.7      65.0       0       2      58      28    1016    0.00
    07/25/2015 06:40      66    60.1      9.78        71.9      72.3      65.0       0       2     109      89    1016    0.00
    07/25/2015 06:50      65    59.9      9.78        72.4      72.7      65.0       1       3      56      37    1016    0.00
    07/25/2015 07:00      63    59.5      9.78        72.4      72.8      65.0       0       2     106     123    1016    0.00
    07/25/2015 07:10      65    59.4      9.78        72.0      72.8      65.0       1       4     169     198    1016    0.00
    07/25/2015 07:20      64    59.8      9.78        72.3      72.8      65.0       1       3     178     157    1016    0.00
    07/25/2015 07:30      61    59.4      9.78        73.0      73.7      65.0       1       3     215     218    1016    0.00
    07/25/2015 07:40      60    59.0      9.78        73.4      73.7      65.0       2       4     265     281    1016    0.00
    07/25/2015 07:50      58    58.7      9.78        74.2      74.7      65.0       1       3     238     228    1016    0.00
    07/25/2015 08:00      54    58.6      9.78        75.5      76.4      65.0       0       2     231     235    1016    0.00
    07/25/2015 08:10      53    58.2      9.78        76.0      76.4      65.0       1       3     181     187    1016    0.00
    07/25/2015 08:20      52    57.3      9.78        76.4      76.7      65.0       2       5     172     138    1016    0.00
    07/25/2015 08:30      48    57.0      9.78        77.5      78.4      65.0       2       4     133      85    1016    0.00
    07/25/2015 08:40      48    56.5      9.78        77.7      78.4      65.0       2       5     168     130    1016    0.00
    07/25/2015 08:50      48    57.4      9.78        78.5      78.9      65.0       2       5     157     150    1016    0.00
    07/25/2015 09:00      42    55.7      9.78        79.4      80.2      65.0       2       5     115      96    1016    0.00
    07/25/2015 09:10      42    54.7      9.78        79.9      80.2      65.0       3       7     105      80    1016    0.00
    07/25/2015 09:20      41    55.1      9.78        80.6      81.1      65.0       3       6     123      80    1016    0.00
    07/25/2015 09:30      39    54.6      9.78        81.6      82.4      65.0       2       4     107     129    1016    0.00
    07/25/2015 09:40      36    53.5      9.78        82.3      82.7      65.0       2       6      82      44    1016    0.00
    07/25/2015 09:50      33    51.4      9.78        82.3      82.9      65.0       3       6     144      63    1016    0.00
    07/25/2015 10:00      36    52.9      9.78        83.1      83.9      65.0       2       6     199     181    1016    0.00
    07/25/2015 10:10      32    52.1      9.78        83.8      84.4      65.0       2       5      76      73    1016    0.00
    07/25/2015 10:20      34    52.0      9.78        84.6      85.2      65.0       2       4      89     164    1016    0.00
    07/25/2015 10:30      35    51.7      9.78        84.6      85.2      65.0       2       6     173     160    1016    0.00
    07/25/2015 10:40      32    52.9      9.78        85.1      85.7      65.0       2       6     138     159    1015    0.00
    07/25/2015 10:50      32    52.9      9.78        86.0      86.9      65.0       2       7     198     189    1015    0.00
    07/25/2015 11:00      31    53.1      9.78        86.3      87.4      65.0       2       5     214     183    1015    0.00
    07/25/2015 11:10      29    53.6      9.78        87.9      88.8      65.0       2       4     208     219    1015    0.00
    07/25/2015 11:20      31    53.3      9.78        87.3      88.8      65.0       4       8     201     193    1015    0.00
    07/25/2015 11:30      31    52.7      9.78        87.9      88.8      65.0       3       9     229     149    1015    0.00
    07/25/2015 11:40      27    51.8      9.78        88.9      89.6      65.0       4      11     111     151    1015    0.00
    07/25/2015 11:50      26    50.4      9.78        88.8      89.6      65.0       3       7     109     119    1015    0.00
    07/25/2015 12:00      27    51.0      9.78        89.6      89.9      65.0       4       8     128     145    1014    0.00
    07/25/2015 12:10      26    51.4      9.78        89.8      90.5      65.0       6      10     144     126    1014    0.00
    07/25/2015 12:20      27    51.5      9.78        90.1      90.5      65.0       5       8     134      88    1014    0.00
    07/25/2015 12:30      27    52.1      9.78        90.0      91.0      65.0       3       8     186     177    1014    0.00
    07/25/2015 12:40      27    52.3      9.78        90.8      91.6      65.0       4       9     113      80    1014    0.00
    07/25/2015 12:50      28    52.5      9.78        91.5      92.2      65.0       4       9     142     173    1014    0.00
    07/25/2015 13:00      25    53.1      9.78        91.8      92.8      65.0       4       8     156     190    1013    0.00
    07/25/2015 13:10      26    52.4      9.78        91.3      92.8      65.0       5      10     163     187    1013    0.00
    07/25/2015 13:20      26    51.7      9.78        91.8      92.8      65.0       5      11     138     152    1013    0.00
    07/25/2015 13:30      25    52.1      9.78        92.1      92.8      65.0       5      10     192     144    1013    0.00
    07/25/2015 13:40      24    50.4      9.78        91.7      92.8      65.0       3       8     248     265    1013    0.00
    07/25/2015 13:50      22    48.7      9.78        92.5      93.2      65.0       4      11     282     290    1013    0.00
    07/25/2015 14:00      21    44.7      9.78        92.3      93.2      65.0       6      12     291     288    1013    0.00
    07/25/2015 14:10      18    43.2      9.78        92.5      93.2      65.0       7      13     281     244    1013    0.00
    07/25/2015 14:20      17    41.6      9.78        92.5      93.2      65.0       6      11     278     296    1013    0.00
    07/25/2015 14:30      17    41.3      9.78        92.6      93.2      65.0       5      10     276     256    1013    0.00
    07/25/2015 14:40      17    41.6      9.78        92.4      93.2      65.0       6      13     276     248    1012    0.00
    07/25/2015 14:50      17    41.8      9.78        92.6      93.2      65.0       5      10     295     289    1012    0.00
    07/25/2015 15:00      17    41.1      9.78        92.2      93.2      65.0       5      10     282     252    1012    0.00
    07/25/2015 15:10      17    41.8      9.78        92.2      93.2      65.0       6      16     292     285    1012    0.00
    07/25/2015 15:20      18    41.4      9.78        92.2      93.2      65.0       7      13     287     275    1012    0.00
    07/25/2015 15:30      18    41.5      9.78        92.2      93.2      65.0       6      16     275     260    1012    0.00
    07/25/2015 15:40      18    43.6      9.78        92.0      93.2      65.0       5      13     284     289    1012    0.00
    07/25/2015 15:50      21    44.5      9.78        91.2      93.2      65.0       6      13     281     287    1012    0.00
    07/25/2015 16:00      23    45.9      9.78        90.6      93.2      65.0       7      12     282     310    1012    0.00
    07/25/2015 16:10      24    47.9      9.78        89.9      93.2      65.0       7      16     282     302    1012    0.00
    07/25/2015 16:20      25    48.8      9.78        89.2      93.2      65.0       7      14     277     301    1012    0.00
    07/25/2015 16:30      26    49.1      9.78        89.2      93.2      65.0       6      13     273     251    1012    0.00
    07/25/2015 16:40      27    50.0      9.78        89.0      93.2      65.0       5      12     270     247    1012    0.00
    07/25/2015 16:50      26    49.7      9.78        88.9      93.2      65.0       5      10     272     240    1012    0.00
    07/25/2015 17:00      26    49.7      9.78        89.0      93.2      65.0       5      13     274     253    1012    0.00
    07/25/2015 17:10      27    49.8      9.78        88.2      93.2      65.0       5      10     273     246    1012    0.00
    07/25/2015 17:20      28    50.3      9.78        88.3      93.2      65.0       4       8     276     244    1012    0.00
    07/25/2015 17:30      30    51.0      9.78        87.2      93.2      65.0       6      10     274     304    1012    0.00
    07/25/2015 17:40      31    51.7      9.78        86.1      93.2      65.0       5      10     279     244    1012    0.00
    07/25/2015 17:50      32    51.9      9.78        85.5      93.2      65.0       4       9     284     302    1012    0.00
    07/25/2015 18:00      33    51.9      9.78        84.6      93.2      65.0       5      10     291     295    1012    0.00
    07/25/2015 18:10      33    52.1      9.78        84.4      93.2      65.0       3       6     278     303    1012    0.00
    07/25/2015 18:20      34    51.9      9.78        83.8      93.2      65.0       4       9     271     254    1012    0.00
    07/25/2015 18:30      34    51.7      9.78        83.1      93.2      65.0       4       7     279     298    1012    0.00
    07/25/2015 18:40      35    51.6      9.78        82.7      93.2      65.0       2       7     282     253    1012    0.00
    07/25/2015 18:50      36    51.8      9.78        82.1      93.2      65.0       3       6     286     281    1012    0.00
    07/25/2015 19:00      36    51.8      9.78        81.4      93.2      65.0       1       4     282     288    1012    0.00
    07/25/2015 19:10      38    52.3      9.78        80.8      93.2      65.0       1       4     250     266    1012    0.00
    07/25/2015 19:20      39    52.7      9.78        80.3      93.2      65.0       2       6     251     253    1012    0.00
    07/25/2015 19:30      39    53.0      9.78        79.9      93.2      65.0       2       6     251     271    1012    0.00
    07/25/2015 19:40      39    52.8      9.78        79.7      93.2      65.0       2       5     266     243    1012    0.00
    07/25/2015 19:50      41    53.0      9.78        79.4      93.2      65.0       2       4     258     262    1012    0.00
    07/25/2015 20:00      42    53.4      9.78        78.8      93.2      65.0       1       4     245     262    1012    0.00
    07/25/2015 20:10      41    53.2      9.78        78.6      93.2      65.0       1       3     263     248    1012    0.00
    07/25/2015 20:20      42    53.3      9.78        78.6      93.2      65.0       0       2     299     299    1012    0.00
    07/25/2015 20:30      42    53.3      9.78        78.3      93.2      65.0       0       2     279     300    1012    0.00
    07/25/2015 20:40      44    53.6      9.78        77.7      93.2      65.0       0       2     254     250    1012    0.00
    07/25/2015 20:50      45    54.1      9.78        77.1      93.2      65.0       0       1     320     329    1012    0.00
    07/25/2015 21:00      45    54.0      9.78        76.8      93.2      65.0       0       0       0     304    1012    0.00
    07/25/2015 21:10      45    54.0      9.78        76.7      93.2      65.0       0       0       0     313    1012    0.00
    07/25/2015 21:20      48    54.2      9.78        76.4      93.2      65.0       0       0       0     270    1012    0.00
    07/25/2015 21:30      48    54.9      9.78        75.8      93.2      65.0       0       2      73      87    1012    0.00
    07/25/2015 21:40      52    56.0      9.78        75.6      93.2      65.0       0       2     151     156    1012    0.00
    07/25/2015 21:50      53    56.6      9.78        75.0      93.2      65.0       1       2     163     152    1012    0.00
    07/25/2015 22:00      53    56.5      9.78        74.8      93.2      65.0       0       2     183     179    1012    0.00
    07/25/2015 22:10      52    56.4      9.78        74.7      93.2      65.0       0       2     170     183    1012    0.00
    07/25/2015 22:20      53    56.4      9.78        74.7      93.2      65.0       0       2     103      90    1012    0.00
    07/25/2015 22:30      52    56.2      9.78        74.8      93.2      65.0       0       2      69      93    1012    0.00
    07/25/2015 22:40      53    56.6      9.78        75.2      93.2      65.0       1       3      77     102    1012    0.00
    07/25/2015 22:50      54    57.1      9.78        75.1      93.2      65.0       2       5      83      65    1012    0.00
    07/25/2015 23:00      56    57.3      9.78        74.6      93.2      65.0       3       5      82      75    1012    0.00
    07/25/2015 23:10      56    57.3      9.78        73.9      93.2      65.0       2       4      80      76    1012    0.00
    07/25/2015 23:20      57    57.2      9.78        73.4      93.2      65.0       2       4      90      66    1012    0.00
    07/25/2015 23:30      58    57.1      9.78        73.1      93.2      65.0       3       6      77      55    1012    0.00
    07/25/2015 23:40      58    57.1      9.78        72.7      93.2      65.0       2       4      85      87    1012    0.00
    07/25/2015 23:50      60    57.2      9.78        72.3      93.2      65.0       3       5      72      59    1012    0.00
    07/26/2015 00:00      60    57.3      9.78        72.0      93.2      65.0       2       5      78      86    1012    0.00
    07/26/2015 00:10      61    57.3      9.78        71.6      71.9      71.4       2       4      64      24    1012    0.00
    07/26/2015 00:20      62    57.4      9.78        71.4      71.9      71.3       1       3      57      38    1012    0.00
    07/26/2015 00:30      62    57.4      9.78        71.2      71.9      70.9       2       4      67      30    1012    0.00
    07/26/2015 00:40      63    57.5      9.78        71.0      71.9      70.8       3       4      58      76    1012    0.00
    07/26/2015 00:50      63    57.5      9.78        70.7      71.9      70.3       2       5      57      84    1012    0.00
    07/26/2015 01:00      63    57.4      9.78        70.5      71.9      70.3       2       5      54      43    1012    0.00
    07/26/2015 01:10      63    57.4      9.78        70.3      71.9      70.1       2       5      53      33    1012    0.00
    07/26/2015 01:20      64    57.3      9.78        70.1      71.9      69.8       0       3      29      47    1012    0.00
    07/26/2015 01:30      64    57.2      9.78        70.0      71.9      69.8       1       3      52      47    1012    0.00
    07/26/2015 01:40      64    57.1      9.78        70.0      71.9      69.8       1       2      87      80    1012    0.00
    07/26/2015 01:50      65    57.3      9.78        69.8      71.9      69.7       1       3      80      43    1012    0.00
    07/26/2015 02:00      66    57.3      9.78        69.6      71.9      69.2       0       2      71      67    1012    0.00
    07/26/2015 02:10      67    57.4      9.78        69.2      71.9      68.8       0       2      91     137    1011    0.00
    07/26/2015 02:20      70    57.5      9.78        68.3      71.9      68.0       0       1     136     138    1011    0.00
    07/26/2015 02:30      71    57.6      9.78        67.7      71.9      67.5       0       0       0     213    1011    0.00
    07/26/2015 02:40      72    57.8      9.78        67.3      71.9      67.0       0       0       0     178    1011    0.00
    07/26/2015 02:50      73    58.2      9.78        67.3      71.9      67.0       0       0       0     172    1011    0.00
    07/26/2015 03:00      73    58.3      9.78        67.2      71.9      67.0       0       0       0     210    1011    0.00
    07/26/2015 03:10      72    58.2      9.78        67.1      71.9      66.8       0       2     316     335    1011    0.00
    07/26/2015 03:20      72    57.7      9.78        67.2      71.9      66.8       0       1     322     332    1011    0.00
    07/26/2015 03:30      71    57.4      9.78        66.8      71.9      66.5       0       0       0     339    1011    0.00
    07/26/2015 03:40      72    57.2      9.78        66.5      71.9      66.3       0       0       0      27    1011    0.00
    07/26/2015 03:50      73    57.2      9.78        66.2      71.9      65.9       0       1       0       9    1011    0.00
    07/26/2015 04:00      74    57.3      9.78        66.0      71.9      65.8       0       0      25      29    1011    0.00
    07/26/2015 04:10      75    57.4      9.78        65.8      71.9      65.6       0       1      45      57    1011    0.00
    07/26/2015 04:20      75    57.5      9.78        65.5      71.9      65.3       0       0       0      76    1011    0.00
    07/26/2015 04:30      75    57.6      9.78        65.6      71.9      65.3       0       0       0     329    1011    0.00
    07/26/2015 04:40      75    57.6      9.78        65.5      71.9      65.3       0       3      51      50    1012    0.00
    07/26/2015 04:50      73    57.6      9.78        66.3      71.9      65.3       1       3      42      31    1012    0.00
    07/26/2015 05:00      73    57.5      9.78        66.5      71.9      65.3       2       4      37      11    1012    0.00
    07/26/2015 05:10      74    57.8      9.78        66.6      71.9      65.3       2       4      46      33    1012    0.00
    07/26/2015 05:20      74    58.2      9.78        66.7      71.9      65.3       2       4      53      43    1012    0.00
    07/26/2015 05:30      75    58.4      9.78        66.8      71.9      65.3       2       4      41      33    1012    0.00
    07/26/2015 05:40      75    58.6      9.78        66.8      71.9      65.3       2       4      44      26    1012    0.00
    07/26/2015 05:50      76    58.9      9.78        66.9      71.9      65.3       1       3      50      29    1012    0.00
    07/26/2015 06:00      75    59.5      9.78        67.4      71.9      65.3       1       2      69      51    1012    0.00
    07/26/2015 06:10      73    59.6      9.78        68.5      71.9      65.3       3       5      82      82    1013    0.00
    07/26/2015 06:20      70    59.5      9.78        69.1      71.9      65.3       2       5      81      72    1013    0.00
    07/26/2015 06:30      69    59.0      9.78        69.2      71.9      65.3       3       6      89      65    1013    0.00
    07/26/2015 06:40      66    58.9      9.78        69.8      71.9      65.3       2       4      95      67    1013    0.00
    07/26/2015 06:50      69    58.9      9.78        70.2      71.9      65.3       3       7      99     102    1013    0.00
    07/26/2015 07:00      69    59.5      9.78        70.2      71.9      65.3       3       6     100     115    1013    0.00
    07/26/2015 07:10      67    59.4      9.78        70.3      71.9      65.3       4       7      96     101    1013    0.00
    07/26/2015 07:20      68    59.0      9.78        70.1      71.9      65.3       5       8      83      75    1013    0.00
    07/26/2015 07:30      66    59.2      9.78        70.5      71.9      65.3       3       9      93      93    1013    0.00
    07/26/2015 07:40      64    59.2      9.78        71.7      72.4      65.3       3       7     120      78    1013    0.00
    07/26/2015 07:50      63    58.9      9.78        72.0      72.4      65.3       3       6      71      64    1013    0.00
    07/26/2015 08:00      61    59.1      9.78        72.7      73.1      65.3       2       7     139     138    1013    0.00
    07/26/2015 08:10      60    58.9      9.78        72.9      73.6      65.3       3       6     150     133    1013    0.00
    07/26/2015 08:20      60    58.3      9.78        73.6      74.3      65.3       2       5     126     160    1013    0.00
    07/26/2015 08:30      60    58.7      9.78        73.7      74.3      65.3       4       9     154     173    1013    0.00
    07/26/2015 08:40      54    58.3      9.78        73.9      74.8      65.3       5       9     163     157    1013    0.00
    07/26/2015 08:50      56    57.2      9.78        74.5      75.1      65.3       4       9     153     169    1013    0.00
    07/26/2015 09:00      51    56.7      9.78        75.3      76.1      65.3       3       7     120      93    1013    0.00
    07/26/2015 09:10      48    55.8      9.78        76.0      76.3      65.3       2       6     126      93    1013    0.00
    07/26/2015 09:20      46    55.5      9.78        77.3      77.9      65.3       3       7     103     144    1013    0.00
    07/26/2015 09:30      48    55.5      9.78        77.4      77.9      65.3       2       6     105      90    1013    0.00
    07/26/2015 09:40      44    54.8      9.78        78.0      78.2      65.3       2       6      90     137    1013    0.00
    07/26/2015 09:50      40    53.7      9.78        78.8      79.4      65.3       3       7      82      67    1013    0.00
    07/26/2015 10:00      43    54.6      9.78        79.5      80.3      65.3       2       7     157     167    1013    0.00
    07/26/2015 10:10      36    51.9      9.78        80.7      81.4      65.3       3       8     140     165    1013    0.00
    07/26/2015 10:20      36    52.1      9.78        81.1      81.7      65.3       3       8     151     164    1013    0.00
    07/26/2015 10:30      36    52.5      9.78        80.9      82.1      65.3       4       8     173     162    1013    0.00
    07/26/2015 10:40      37    52.4      9.78        82.1      82.7      65.3       4       8     136     137    1013    0.00
    07/26/2015 10:50      34    53.0      9.78        82.7      83.8      65.3       4      12     134     145    1013    0.00
    07/26/2015 11:00      33    51.8      9.78        84.1      84.5      65.3       3       8     117     131    1013    0.00
    07/26/2015 11:10      33    52.0      9.78        84.3      84.9      65.3       4       9     133     164    1013    0.00
    07/26/2015 11:20      33    52.6      9.78        84.5      84.9      65.3       4       9     134     148    1013    0.00
    07/26/2015 11:30      33    52.8      9.78        84.6      85.5      65.3       4       9     157     131    1013    0.00
    07/26/2015 11:40      34    51.7      9.78        84.3      85.5      65.3       4       9     101     100    1013    0.00
    07/26/2015 11:50      32    52.2      9.78        84.4      85.5      65.3       3       8      98     110    1013    0.00
    07/26/2015 12:00      32    51.3      9.78        84.7      85.5      65.3       4       9     121      95    1013    0.00
    07/26/2015 12:10      34    52.5      9.78        85.5      86.2      65.3       4      11     126      86    1012    0.00
    07/26/2015 12:20      33    52.3      9.78        85.6      86.2      65.3       7      11     149     156    1012    0.00
    07/26/2015 12:30      31    51.2      9.78        85.0      86.2      65.3       5      11     137     144    1012    0.00
    07/26/2015 12:40      29    50.7      9.78        85.4      86.2      65.3       6      12     140     170    1012    0.00
    07/26/2015 12:50      29    50.4      9.78        85.9      86.2      65.3       5      11     123      83    1012    0.00
    07/26/2015 13:00      32    50.6      9.78        86.0      86.7      65.3       5      13     121     169    1012    0.00
    07/26/2015 13:10      28    50.7      9.78        86.1      86.7      65.3       6      12     154     142    1012    0.00
    07/26/2015 13:20      28    48.7      9.78        86.3      86.8      65.3       5      13     119     132    1012    0.00
    07/26/2015 13:30      28    49.2      9.78        86.0      86.8      65.3       6      12     136     144    1012    0.00
    07/26/2015 13:40      26    48.6      9.78        86.4      86.9      65.3       5      12     118     132    1012    0.00
    07/26/2015 13:50      27    48.0      9.78        86.6      87.0      65.3       5      12     117     158    1011    0.00
    07/26/2015 14:00      26    47.9      9.78        86.4      87.0      65.3       6      12     121     147    1011    0.00
    07/26/2015 14:10      27    47.9      9.78        87.0      87.8      65.3       6      14     107      47    1011    0.00
    07/26/2015 14:20      26    49.1      9.78        86.4      87.8      65.3       6      12     128     143    1011    0.00
    07/26/2015 14:30      24    46.7      9.78        86.7      87.8      65.3       5      11     124     118    1011    0.00
    07/26/2015 14:40      27    47.6      9.78        86.7      87.8      65.3       5       9     121     134    1011    0.00
    07/26/2015 14:50      27    48.1      9.78        86.3      87.8      65.3       5      11     112      96    1011    0.00
    07/26/2015 15:00      27    47.6      9.78        86.1      87.8      65.3       6      13     112      82    1011    0.00
    07/26/2015 15:10      27    49.1      9.78        86.3      87.8      65.3       6      14     109      96    1011    0.00
    07/26/2015 15:20      28    48.7      9.78        85.7      87.8      65.3       6      13     106      77    1011    0.00
    07/26/2015 15:30      27    49.0      9.78        85.9      87.8      65.3       5      14     132     152    1011    0.00
    07/26/2015 15:40      28    47.9      9.78        85.2      87.8      65.3       6      13     109      84    1011    0.00
    07/26/2015 15:50      28    48.0      9.78        84.4      87.8      65.3       6      14     120     100    1011    0.00
    07/26/2015 16:00      29    48.4      9.78        85.1      87.8      65.3       5      11     114      71    1011    0.00
    07/26/2015 16:10      30    48.8      9.78        84.2      87.8      65.3       6      12     107     101    1011    0.00
    07/26/2015 16:20      33    49.8      9.78        83.2      87.8      65.3       6      12     121      92    1011    0.00
    07/26/2015 16:30      33    50.4      9.78        83.0      87.8      65.3       5      10     117     120    1011    0.00
    07/26/2015 16:40      31    49.9      9.78        82.8      87.8      65.3       4       9     106      99    1011    0.00
    07/26/2015 16:50      31    49.0      9.78        83.3      87.8      65.3       5       9      99      86    1011    0.00
    07/26/2015 17:00      31    49.0      9.78        82.6      87.8      65.3       5      10     117     130    1011    0.00
    07/26/2015 17:10      31    49.2      9.78        82.5      87.8      65.3       4      10     111     141    1011    0.00
    07/26/2015 17:20      31    48.9      9.78        82.5      87.8      65.3       4      10     108      81    1011    0.00
    07/26/2015 17:30      31    48.5      9.78        82.3      87.8      65.3       4      11     103      79    1011    0.00
    07/26/2015 17:40      34    48.9      9.78        81.4      87.8      65.3       5       9      98      79    1011    0.00
    07/26/2015 17:50      35    49.3      9.78        80.7      87.8      65.3       5       9      98      79    1011    0.00
    07/26/2015 18:00      36    50.2      9.78        79.8      87.8      65.3       4       8      90      92    1011    0.00
    07/26/2015 18:10      36    49.9      9.78        79.4      87.8      65.3       3       6     100      55    1011    0.00
    07/26/2015 18:20      36    49.8      9.78        79.2      87.8      65.3       4       7      95      92    1011    0.00
    07/26/2015 18:30      35    49.1      9.78        79.0      87.8      65.3       4       7     104      85    1011    0.00
    07/26/2015 18:40      38    49.3      9.78        78.4      87.8      65.3       2       6     108     141    1011    0.00
    07/26/2015 18:50      39    50.7      9.78        77.7      87.8      65.3       3       5      90      98    1011    0.00
    07/26/2015 19:00      39    50.1      9.78        77.0      87.8      65.3       3       6      84     100    1011    0.00
    07/26/2015 19:10      42    51.0      9.78        76.2      87.8      65.3       3       7      97      91    1011    0.00
    07/26/2015 19:20      41    50.5      9.78        75.4      87.8      65.3       2       7     113      88    1011    0.00
    07/26/2015 19:30      44    50.7      9.78        74.5      87.8      65.3       4       7     104      87    1011    0.00
    07/26/2015 19:40      47    51.6      9.78        73.9      87.8      65.3       2       5     105     134    1011    0.00
    07/26/2015 19:50      49    52.5      9.78        73.3      87.8      65.3       2       5      96     107    1011    0.00
    07/26/2015 20:00      51    53.0      9.78        72.6      87.8      65.3       2       5      91      60    1011    0.00
    07/26/2015 20:10      51    53.1      9.78        72.1      87.8      65.3       3       6      80      92    1011    0.00
    07/26/2015 20:20      52    52.8      9.78        71.6      87.8      65.3       3       7      87      82    1011    0.00
    07/26/2015 20:30      54    53.2      9.78        71.3      87.8      65.3       3       6      79      67    1012    0.00
    07/26/2015 20:40      57    54.2      9.78        70.8      87.8      65.3       3       6      72      71    1012    0.00
    07/26/2015 20:50      60    55.4      9.78        70.4      87.8      65.3       3       6      72      86    1012    0.00
    07/26/2015 21:00      60    55.7      9.78        70.2      87.8      65.3       3       5      79      74    1012    0.00
    07/26/2015 21:10      62    56.0      9.78        70.0      87.8      65.3       4       7      77      75    1012    0.00
    07/26/2015 21:20      62    56.2      9.78        69.7      87.8      65.3       2       4      57      41    1012    0.00
    07/26/2015 21:30      62    56.2      9.78        69.7      87.8      65.3       3       6      60      35    1012    0.00
    07/26/2015 21:40      62    56.0      9.78        69.5      87.8      65.3       3       5      58      32    1012    0.00
    07/26/2015 21:50      64    56.3      9.78        69.3      87.8      65.3       3       6      66      34    1012    0.00
    07/26/2015 22:00      64    56.5      9.78        69.1      87.8      65.3       2       5      63      82    1012    0.00
    07/26/2015 22:10      63    56.3      9.78        69.0      87.8      65.3       3       5      77      71    1012    0.00
    07/26/2015 22:20      63    55.7      9.78        68.9      87.8      65.3       3       6      84      93    1012    0.00
    07/26/2015 22:30      64    55.7      9.78        68.5      87.8      65.3       3       6      93     102    1012    0.00
    07/26/2015 22:40      66    56.0      9.78        68.2      87.8      65.3       3       5      81      77    1012    0.00
    07/26/2015 22:50      68    56.7      9.78        68.0      87.8      65.3       3       5      74      63    1012    0.00
    07/26/2015 23:00      70    57.3      9.78        67.7      87.8      65.3       3       5      78      75    1012    0.00
    07/26/2015 23:10      71    57.5      9.78        67.2      87.8      65.3       3       4      75      88    1012    0.00
    07/26/2015 23:20      72    57.5      9.78        67.0      87.8      65.3       3       5      76      70    1012    0.00
    07/26/2015 23:30      73    57.6      9.78        66.7      87.8      65.3       2       5      86     107    1012    0.00
    07/26/2015 23:40      73    57.7      9.78        66.5      87.8      65.3       2       5      91      74    1012    0.00
    07/26/2015 23:50      75    57.7      9.78        66.2      87.8      65.3       3       6      79      69    1012    0.00
    07/27/2015 00:00      75    57.9      9.78        66.0      87.8      65.3       2       4      69      78    1012    0.00
    07/27/2015 00:10      76    58.1      9.78        65.9      66.1      65.6       2       4      68      99    1012    0.00
    07/27/2015 00:20      76    58.1      9.78        65.8      66.1      65.6       3       5      74      53    1012    0.00
    07/27/2015 00:30      76    58.0      9.78        65.7      66.1      65.5       2       4      79      88    1012    0.00
    07/27/2015 00:40      75    57.8      9.78        65.6      66.1      65.4       2       5      73      86    1012    0.00
    07/27/2015 00:50      76    57.5      9.78        65.5      66.1      65.3       2       6      75      71    1012    0.00
    07/27/2015 01:00      76    57.5      9.78        65.3      66.1      65.1       3       6      52      28    1012    0.00
    07/27/2015 01:10      76    57.4      9.78        65.2      66.1      65.0       3       5      63      43    1012    0.00
    07/27/2015 01:20      76    57.3      9.78        65.0      66.1      64.8       3       5      71      81    1012    0.00
    07/27/2015 01:30      76    57.2      9.78        64.8      66.1      64.5       2       4      75      74    1012    0.00
    07/27/2015 01:40      77    57.1      9.78        64.6      66.1      64.5       2       4      89     101    1012    0.00
    07/27/2015 01:50      77    57.1      9.78        64.4      66.1      64.1       2       5      80      83    1012    0.00
    07/27/2015 02:00      78    57.1      9.78        64.1      66.1      63.9       2       4      70      47    1012    0.00
    07/27/2015 02:10      80    57.3      9.78        63.9      66.1      63.7       2       5      69      61    1012    0.00
    07/27/2015 02:20      80    57.5      9.78        63.8      66.1      63.5       2       4      76      39    1012    0.00
    07/27/2015 02:30      81    57.5      9.78        63.6      66.1      63.5       2       4      78      68    1012    0.00
    07/27/2015 02:40      81    57.5      9.78        63.5      66.1      63.3       1       2      39      60    1012    0.00
    07/27/2015 02:50      81    57.5      9.78        63.4      66.1      63.2       0       1      24       0    1012    0.00
    07/27/2015 03:00      81    57.7      9.78        63.4      66.1      63.2       0       0       3      10    1012    0.00
    07/27/2015 03:10      82    57.7      9.78        63.5      66.1      63.2       0       1     216     220    1012    0.00
    07/27/2015 03:20      82    57.9      9.78        63.6      66.1      63.2       0       2     149     163    1012    0.00
    07/27/2015 03:30      81    58.2      9.78        64.0      66.1      63.2       0       2     146     126    1012    0.00
    07/27/2015 03:40      81    58.2      9.78        64.1      66.1      63.2       0       2     138     104    1012    0.00
    07/27/2015 03:50      81    58.2      9.78        64.1      66.1      63.2       1       2     179     155    1012    0.00
    07/27/2015 04:00      81    58.2      9.78        64.0      66.1      63.2       1       2     214     169    1012    0.00
    07/27/2015 04:10      81    58.3      9.78        64.1      66.1      63.2       0       0     230     205    1012    0.00
    07/27/2015 04:20      81    58.4      9.78        64.3      66.1      63.2       0       2     170     163    1012    0.00
    07/27/2015 04:30      80    58.5      9.78        64.5      66.1      63.2       0       3     144     117    1012    0.00
    07/27/2015 04:40      80    58.4      9.78        64.7      66.1      63.2       0       3     165     161    1012    0.00
    07/27/2015 04:50      80    58.3      9.78        64.7      66.1      63.2       1       4     181     175    1012    0.00
    07/27/2015 05:00      80    58.3      9.78        64.7      66.1      63.2       0       2     153     187    1012    0.00
    07/27/2015 05:10      79    58.3      9.78        64.8      66.1      63.2       0       1     176     191    1012    0.00
    07/27/2015 05:20      79    58.2      9.78        64.9      66.1      63.2       0       2      65      55    1012    0.00
    07/27/2015 05:30      78    58.3      9.78        65.1      66.1      63.2       0       3      34      71    1012    0.00
    07/27/2015 05:40      77    58.2      9.78        65.4      66.1      63.2       0       2     109      84    1012    0.00
    07/27/2015 05:50      76    58.1      9.78        65.6      66.1      63.2       0       0      85      52    1012    0.00
    07/27/2015 06:00      76    58.0      9.78        65.7      66.1      63.2       0       3      67      48    1013    0.00
    07/27/2015 06:10      74    57.9      9.78        65.8      66.1      63.2       1       3     112      97    1013    0.00
    07/27/2015 06:20      73    57.5      9.78        66.2      66.5      63.2       1       3      59      76    1013    0.00
    07/27/2015 06:30      73    57.3      9.78        66.1      66.5      63.2       2       4      53      73    1013    0.00
    07/27/2015 06:40      73    57.3      9.78        66.1      66.5      63.2       0       0       6     331    1013    0.00
    07/27/2015 06:50      72    57.2      9.78        66.3      66.5      63.2       1       3     113      98    1013    0.00
    07/27/2015 07:00      71    57.2      9.78        66.8      67.0      63.2       1       3     124     170    1013    0.00
    07/27/2015 07:10      70    57.0      9.78        67.1      67.3      63.2       2       5      89     114    1013    0.00
    07/27/2015 07:20      69    57.1      9.78        67.3      67.7      63.2       1       4     109      85    1013    0.00
    07/27/2015 07:30      68    56.8      9.78        67.7      67.8      63.2       0       2     129     133    1013    0.00
    07/27/2015 07:40      67    56.8      9.78        68.0      68.3      63.2       2       4     125      99    1013    0.00
    07/27/2015 07:50      66    56.5      9.78        68.2      68.5      63.2       2       4     109      79    1013    0.00
    07/27/2015 08:00      67    56.8      9.78        68.3      68.7      63.2       2       6     140     157    1013    0.00
    07/27/2015 08:10      63    56.8      9.78        69.2      69.8      63.2       2       5      80      84    1013    0.00
    07/27/2015 08:20      63    56.6      9.78        69.8      70.0      63.2       0       2     105     107    1013    0.00
    07/27/2015 08:30      62    56.9      9.78        70.3      70.8      63.2       2       4     207     157    1013    0.00
    07/27/2015 08:40      59    56.9      9.78        71.1      71.5      63.2       3       6     140     148    1013    0.00
    07/27/2015 08:50      58    56.5      9.78        71.4      72.2      63.2       2       4     127     168    1013    0.00
    07/27/2015 09:00      58    56.8      9.78        72.8      73.2      63.2       2       5     302     253    1013    0.00
    07/27/2015 09:10      56    56.6      9.78        72.8      73.2      63.2       2       5      11      45    1013    0.00
    07/27/2015 09:20      54    56.6      9.78        73.2      73.7      63.2       3       7     105      78    1013    0.00
    07/27/2015 09:30      55    56.1      9.78        73.1      73.7      63.2       2       6      90      94    1013    0.00
    07/27/2015 09:40      53    55.9      9.78        73.6      74.3      63.2       2       5     267      98    1013    0.00
    07/27/2015 09:50      49    55.8      9.78        74.7      75.4      63.2       2       6     162     162    1013    0.00
    07/27/2015 10:00      49    55.1      9.78        75.3      76.0      63.2       3       7     119      80    1013    0.00
    07/27/2015 10:10      47    55.1      9.78        75.8      76.6      63.2       2       5      13      22    1013    0.00
    07/27/2015 10:20      47    54.9      9.78        76.8      77.1      63.2       3       5     185     170    1013    0.00
    07/27/2015 10:30      47    54.6      9.78        76.7      77.4      63.2       3       6      84      79    1013    0.00
    07/27/2015 10:40      46    55.2      9.78        77.1      78.2      63.2       3       8     174     148    1012    0.00
    07/27/2015 10:50      46    55.1      9.78        78.2      78.6      63.2       4       8     174     162    1012    0.00
    07/27/2015 11:00      42    54.1      9.78        78.3      78.8      63.2       2       5     144     177    1012    0.00
    07/27/2015 11:10      41    53.8      9.78        79.2      79.9      63.2       2       8     129     143    1012    0.00
    07/27/2015 11:20      39    53.9      9.78        79.4      80.4      63.2       4       8     146     168    1012    0.00
    07/27/2015 11:30      37    52.5      9.78        79.7      80.8      63.2       2       8     168     197    1012    0.00
    07/27/2015 11:40      37    51.5      9.78        81.5      82.4      63.2       2       8     174     198    1012    0.00
    07/27/2015 11:50      35    51.9      9.78        81.7      82.4      63.2       3       7     175     157    1012    0.00
    07/27/2015 12:00      34    52.3      9.78        83.0      83.8      63.2       2       5     154     104    1011    0.00
    07/27/2015 12:10      35    52.6      9.78        82.8      83.8      63.2       3       6     117     175    1011    0.00
    07/27/2015 12:20      34    52.3      9.78        83.3      83.8      63.2       2       6     239     241    1011    0.00
    07/27/2015 12:30      33    52.1      9.78        84.1      84.8      63.2       3       8     116      68    1011    0.00
    07/27/2015 12:40      36    53.1      9.78        84.1      84.8      63.2       4      10     150     194    1011    0.00
    07/27/2015 12:50      36    53.0      9.78        84.4      85.3      63.2       4      12     164      88    1011    0.00
    07/27/2015 13:00      40    55.9      9.78        83.8      85.3      63.2       8      14     152     149    1011    0.00
    07/27/2015 13:10      40    55.6      9.78        83.6      85.3      63.2       7      12     144     150    1011    0.00
    07/27/2015 13:20      40    55.1      9.78        82.3      85.3      63.2       5      11     114      64    1011    0.00
    07/27/2015 13:30      38    55.1      9.78        82.6      85.3      63.2       6      11     120     139    1011    0.00
    07/27/2015 13:40      38    55.3      9.78        82.6      85.3      63.2       5      10     137     125    1011    0.00
    07/27/2015 13:50      37    54.9      9.78        83.2      85.3      63.2       5       9     119     132    1011    0.00
    07/27/2015 14:00      39    54.8      9.78        83.5      85.3      63.2       6      12     117      94    1011    0.00
    07/27/2015 14:10      36    54.9      9.78        83.6      85.3      63.2       5      10     119     150    1011    0.00
    07/27/2015 14:20      36    55.3      9.78        83.8      85.3      63.2       5      11     126     150    1011    0.00
    07/27/2015 14:30      37    54.7      9.78        83.4      85.3      63.2       5      13     110      87    1011    0.00
    07/27/2015 14:40      38    55.0      9.78        83.3      85.3      63.2       7      12     114     104    1010    0.00
    07/27/2015 14:50      39    54.8      9.78        82.6      85.3      63.2       5      11     103      93    1010    0.00
    07/27/2015 15:00      39    54.9      9.78        82.6      85.3      63.2       5      13     104      87    1010    0.00
    07/27/2015 15:10      39    55.3      9.78        82.5      85.3      63.2       5      10     121     132    1010    0.00
    07/27/2015 15:20      38    55.4      9.78        82.8      85.3      63.2       5      13     131     166    1010    0.00
    07/27/2015 15:30      40    55.0      9.78        82.2      85.3      63.2       5      11     123      96    1010    0.00
    07/27/2015 15:40      39    54.9      9.78        82.2      85.3      63.2       5      10     111      72    1010    0.00
    07/27/2015 15:50      37    54.7      9.78        82.3      85.3      63.2       5      11     112     149    1010    0.00
    07/27/2015 16:00      39    54.2      9.78        82.2      85.3      63.2       5      10      99      97    1010    0.00
    07/27/2015 16:10      36    54.7      9.78        82.7      85.3      63.2       4      11     131     120    1010    0.00
    07/27/2015 16:20      36    53.8      9.78        83.1      85.3      63.2       4      10     101      98    1010    0.00
    07/27/2015 16:30      36    53.9      9.78        82.6      85.3      63.2       5      10      98      77    1010    0.00
    07/27/2015 16:40      37    53.8      9.78        82.7      85.3      63.2       4       9     118     136    1010    0.00
    07/27/2015 16:50      37    53.7      9.78        82.4      85.3      63.2       5      10      95      54    1010    0.00
    07/27/2015 17:00      37    53.3      9.78        82.0      85.3      63.2       5      10     118     139    1010    0.00
    07/27/2015 17:10      37    53.0      9.78        81.6      85.3      63.2       5      12     110     112    1010    0.00
    07/27/2015 17:20      38    52.6      9.78        81.0      85.3      63.2       5      10     123     112    1010    0.00
    07/27/2015 17:30      39    52.6      9.78        80.3      85.3      63.2       5      10      97      84    1010    0.00
    07/27/2015 17:40      40    52.9      9.78        79.9      85.3      63.2       5       9      91     123    1010    0.00
    07/27/2015 17:50      39    52.6      9.78        79.4      85.3      63.2       4      10      95      72    1010    0.00
    07/27/2015 18:00      39    52.1      9.78        79.0      85.3      63.2       4       9      98      79    1010    0.00
    07/27/2015 18:10      39    51.8      9.78        78.6      85.3      63.2       4       8     102      86    1010    0.00
    07/27/2015 18:20      41    52.0      9.78        78.2      85.3      63.2       4       8     103      82    1010    0.00
    07/27/2015 18:30      42    52.1      9.78        77.3      85.3      63.2       3       7     106     128    1010    0.00
    07/27/2015 18:40      43    52.6      9.78        76.7      85.3      63.2       4       7      86      87    1010    0.00
    07/27/2015 18:50      43    52.2      9.78        76.3      85.3      63.2       4       7      89      86    1011    0.00
    07/27/2015 19:00      45    52.5      9.78        76.0      85.3      63.2       3       6      81      92    1011    0.00
    07/27/2015 19:10      46    52.9      9.78        75.4      85.3      63.2       4       7      89     101    1011    0.00
    07/27/2015 19:20      47    53.1      9.78        75.0      85.3      63.2       4       7      85      55    1011    0.00
    07/27/2015 19:30      48    53.5      9.78        74.6      85.3      63.2       1       4      98     103    1011    0.00
    07/27/2015 19:40      49    53.7      9.78        74.3      85.3      63.2       3       5      77      64    1011    0.00
    07/27/2015 19:50      50    53.5      9.78        73.8      85.3      63.2       3       7      83      80    1011    0.00
    07/27/2015 20:00      52    53.9      9.78        73.2      85.3      63.2       3       5      82      95    1011    0.00
    07/27/2015 20:10      53    54.3      9.78        72.8      85.3      63.2       4       6      81      71    1011    0.00
    07/27/2015 20:20      53    54.5      9.78        72.5      85.3      63.2       2       5      78      83    1011    0.00
    07/27/2015 20:30      53    54.5      9.78        72.3      85.3      63.2       2       5      82      62    1011    0.00
    07/27/2015 20:40      54    54.4      9.78        72.1      85.3      63.2       2       5      82      92    1011    0.00
    07/27/2015 20:50      54    54.4      9.78        71.9      85.3      63.2       2       5      81      93    1011    0.00
    07/27/2015 21:00      55    54.4      9.78        71.7      85.3      63.2       2       4      73      83    1012    0.00
    07/27/2015 21:10      55    54.4      9.78        71.5      85.3      63.2       2       4      79      91    1012    0.00
    07/27/2015 21:20      56    54.5      9.78        71.3      85.3      63.2       2       5      79      57    1012    0.00
    07/27/2015 21:30      56    54.4      9.78        71.1      85.3      63.2       2       4      76      80    1012    0.00
    07/27/2015 21:40      56    54.5      9.78        71.0      85.3      63.2       2       3      77      72    1012    0.00
    07/27/2015 21:50      57    54.7      9.78        70.8      85.3      63.2       1       3      66      63    1012    0.00
    07/27/2015 22:00      58    54.8      9.78        70.6      85.3      63.2       1       3      72      65    1012    0.00
    07/27/2015 22:10      58    54.9      9.78        70.5      85.3      63.2       1       2      73      70    1012    0.00
    07/27/2015 22:20      59    55.1      9.78        70.5      85.3      63.2       0       3      83      92    1012    0.00
    07/27/2015 22:30      59    55.3      9.78        70.3      85.3      63.2       0       2      70      71    1012    0.00
    07/27/2015 22:40      60    55.4      9.78        70.2      85.3      63.2       1       3      79      58    1012    0.00
    07/27/2015 22:50      62    55.9      9.78        70.0      85.3      63.2       2       3      75      95    1012    0.00
    07/27/2015 23:00      62    56.1      9.78        69.7      85.3      63.2       1       3      81      79    1012    0.00
    07/27/2015 23:10      63    56.1      9.78        69.6      85.3      63.2       0       2      72      77    1011    0.00
    07/27/2015 23:20      64    56.0      9.78        69.0      85.3      63.2       1       3     144     144    1011    0.00
    07/27/2015 23:30      64    56.1      9.78        68.6      85.3      63.2       1       3      91     114    1011    0.00
    07/27/2015 23:40      65    56.3      9.78        68.7      85.3      63.2       1       3      83      75    1011    0.00
    07/27/2015 23:50      66    56.5      9.78        68.5      85.3      63.2       0       0     115     139    1011    0.00
    07/28/2015 00:00      68    57.0      9.78        68.2      85.3      63.2       1       3      80     108    1011    0.00
    07/28/2015 00:10      69    57.4      9.78        68.0      68.3      67.8       1       3      81      76    1011    0.00
    07/28/2015 00:20      70    57.5      9.78        67.9      68.3      67.7       1       2      73      74    1011    0.00
    07/28/2015 00:30      70    57.7      9.78        67.7      68.3      67.5       1       2      74      99    1011    0.00
    07/28/2015 00:40      70    57.7      9.78        67.7      68.3      67.5       1       3      83      85    1011    0.00
    07/28/2015 00:50      71    57.6      9.78        67.5      68.3      67.2       1       3      87      89    1011    0.00
    07/28/2015 01:00      72    57.5      9.78        67.2      68.3      66.9       0       1      78      69    1011    0.00
    07/28/2015 01:10      73    57.6      9.78        66.9      68.3      66.5       0       2      51      55    1011    0.00
    07/28/2015 01:20      74    57.6      9.78        66.4      68.3      66.1       0       2      47      80    1011    0.00
    07/28/2015 01:30      74    58.1      9.78        66.5      68.3      66.1       1       2      79      70    1011    0.00
    07/28/2015 01:40      74    58.1      9.78        66.6      68.3      66.1       0       2      90      91    1011    0.00
    07/28/2015 01:50      75    58.0      9.78        66.2      68.3      66.0       0       3     102     111    1011    0.00
    07/28/2015 02:00      77    58.0      9.78        65.9      68.3      65.6       0       2      82     106    1011    0.00
    07/28/2015 02:10      78    58.2      9.78        65.6      68.3      65.4       0       1      89     131    1011    0.00
    07/28/2015 02:20      78    58.6      9.78        65.6      68.3      65.2       1       3      62      51    1011    0.00
    07/28/2015 02:30      78    58.7      9.78        65.6      68.3      65.2       1       2      77     109    1011    0.00
    07/28/2015 02:40      78    58.6      9.78        65.5      68.3      65.2       0       2      65      62    1011    0.00
    07/28/2015 02:50      79    58.6      9.78        65.4      68.3      65.1       1       2      44      33    1011    0.00
    07/28/2015 03:00      79    58.6      9.78        65.2      68.3      65.1       2       3      40      42    1011    0.00
    07/28/2015 03:10      79    58.6      9.78        65.2      68.3      65.1       1       3      60      53    1011    0.00
    07/28/2015 03:20      80    58.5      9.78        65.1      68.3      64.8       0       3      55      42    1011    0.00
    07/28/2015 03:30      80    58.6      9.78        65.0      68.3      64.8       0       2      55      56    1011    0.00
    07/28/2015 03:40      81    58.6      9.78        64.8      68.3      64.6       0       2      55      54    1011    0.00
    07/28/2015 03:50      81    58.8      9.78        64.8      68.3      64.6       1       2      51      57    1011    0.00
    07/28/2015 04:00      81    58.7      9.78        64.7      68.3      64.4       1       2      46      31    1011    0.00
    07/28/2015 04:10      82    58.8      9.78        64.5      68.3      64.3       1       2      76      62    1011    0.00
    07/28/2015 04:20      82    58.7      9.78        64.4      68.3      64.2       1       2      79      86    1011    0.00
    07/28/2015 04:30      82    58.5      9.78        64.2      68.3      64.0       0       2      95      92    1011    0.00
    07/28/2015 04:40      82    58.3      9.78        63.9      68.3      63.6       0       2     123     151    1011    0.00
    07/28/2015 04:50      84    58.2      9.78        63.4      68.3      63.2       1       3     145     140    1011    0.00
    07/28/2015 05:00      85    58.3      9.78        63.2      68.3      63.0       0       2     134      78    1011    0.00
    07/28/2015 05:10      85    58.5      9.78        63.1      68.3      62.8       2       3     142     141    1011    0.00
    07/28/2015 05:20      85    58.4      9.78        62.9      68.3      62.6       0       2     147     146    1011    0.00
    07/28/2015 05:30      86    58.5      9.78        62.9      68.3      62.6       0       2     149     170    1012    0.00
    07/28/2015 05:40      87    58.8      9.78        62.9      68.3      62.6       1       3     146     148    1012    0.00
    07/28/2015 05:50      87    59.1      9.78        63.2      68.3      62.6       1       3     154     146    1012    0.00
    07/28/2015 06:00      87    59.5      9.78        63.5      68.3      62.6       1       3     152     166    1012    0.00
    07/28/2015 06:10      86    59.7      9.78        63.9      68.3      62.6       0       3     137     153    1012    0.00
    07/28/2015 06:20      85    59.7      9.78        64.1      68.3      62.6       0       4     151      65    1012    0.00
    07/28/2015 06:30      84    59.4      9.78        64.2      68.3      62.6       2       5      73      91    1012    0.00
    07/28/2015 06:40      84    59.4      9.78        64.3      68.3      62.6       0       2     334     108    1012    0.00
    07/28/2015 06:50      83    59.5      9.78        64.6      68.3      62.6       1       3     201     172    1012    0.00
    07/28/2015 07:00      83    59.6      9.78        64.9      68.3      62.6       1       3     172     173    1012    0.00
    07/28/2015 07:10      81    59.6      9.78        65.3      68.3      62.6       0       2     231     177    1012    0.00
    07/28/2015 07:20      80    59.4      9.78        65.6      68.3      62.6       2       6      88      61    1012    0.00
    07/28/2015 07:30      79    59.1      9.78        65.6      68.3      62.6       3       5      49      45    1012    0.00
    07/28/2015 07:40      78    59.2      9.78        66.0      68.3      62.6       0       2     115     131    1012    0.00
    07/28/2015 07:50      76    59.5      9.78        66.6      68.3      62.6       2       4     168     160    1012    0.00
    07/28/2015 08:00      74    59.1      9.78        67.2      68.3      62.6       1       3     164     178    1012    0.00
    07/28/2015 08:10      68    59.2      9.78        68.9      70.1      62.6       0       2     192     182    1012    0.00
    07/28/2015 08:20      69    58.9      9.78        69.9      70.3      62.6       0       3     180     185    1012    0.00
    07/28/2015 08:30      67    58.9      9.78        70.3      70.7      62.6       2       4     243     209    1012    0.00
    07/28/2015 08:40      65    59.2      9.78        71.0      71.7      62.6       2       3     302     281    1012    0.00
    07/28/2015 08:50      61    59.0      9.78        72.3      73.1      62.6       0       3     300     307    1012    0.00
    07/28/2015 09:00      61    59.0      9.78        73.0      73.4      62.6       2       5     155     162    1012    0.00
    07/28/2015 09:10      57    58.6      9.78        73.8      74.5      62.6       1       4     122     172    1012    0.00
    07/28/2015 09:20      56    58.3      9.78        75.0      76.0      62.6       0       3     269     270    1012    0.00
    07/28/2015 09:30      53    58.3      9.78        76.3      76.6      62.6       1       3     231     273    1012    0.00
    07/28/2015 09:40      50    57.7      9.78        76.5      77.2      62.6       1       4     317     289    1012    0.00
    07/28/2015 09:50      47    55.8      9.78        77.3      77.6      62.6       2       4      83     143    1012    0.00
    07/28/2015 10:00      45    55.9      9.78        78.0      79.1      62.6       2       4     273     248    1012    0.00
    07/28/2015 10:10      44    55.4      9.78        79.3      79.9      62.6       2       4     155     191    1012    0.00
    07/28/2015 10:20      42    54.5      9.78        79.6      80.1      62.6       2       5     104      85    1012    0.00
    07/28/2015 10:30      43    55.0      9.78        80.4      81.2      62.6       2       6      67     169    1012    0.00
    07/28/2015 10:40      37    54.0      9.78        80.7      81.2      62.6       4       6     111      78    1012    0.00
    07/28/2015 10:50      35    52.8      9.78        81.9      83.6      62.6       3       6     151     149    1012    0.00
    07/28/2015 11:00      33    52.6      9.78        82.9      83.6      62.6       3       6     149     165    1011    0.00
    07/28/2015 11:10      33    51.8      9.78        83.3      83.8      62.6       4       8      74      81    1011    0.00
    07/28/2015 11:20      34    52.0      9.78        83.7      84.3      62.6       2       4     116     186    1011    0.00
    07/28/2015 11:30      31    51.5      9.78        84.6      85.6      62.6       2       7      93     142    1011    0.00
    07/28/2015 11:40      33    52.9      9.78        85.3      86.0      62.6       3       7     157     175    1011    0.00
    07/28/2015 11:50      32    52.9      9.78        86.1      86.5      62.6       3       7     146     131    1011    0.00
    07/28/2015 12:00      32    53.2      9.78        86.9      87.3      62.6       3       7     110     153    1011    0.00
    07/28/2015 12:10      30    53.1      9.78        87.3      88.4      62.6       5      10     151     162    1011    0.00
    07/28/2015 12:20      30    52.7      9.78        87.4      88.4      62.6       3       7     129     121    1011    0.00
    07/28/2015 12:30      32    52.9      9.78        87.6      88.4      62.6       4       8     127      88    1011    0.00
    07/28/2015 12:40      30    53.3      9.78        87.6      88.4      62.6       5      12     157     144    1011    0.00
    07/28/2015 12:50      31    53.4      9.78        88.6      89.2      62.6       3       7     145     159    1010    0.00
    07/28/2015 13:00      29    52.7      9.78        88.8      89.6      62.6       3       6     118      93    1010    0.00
    07/28/2015 13:10      27    52.6      9.78        89.2      90.1      62.6       5      10     142     207    1010    0.00
    07/28/2015 13:20      28    51.9      9.78        89.1      90.1      62.6       5       9     168     179    1010    0.00
    07/28/2015 13:30      27    49.8      9.78        89.4      90.1      62.6       3       7     116     162    1010    0.00
    07/28/2015 13:40      24    48.7      9.78        90.0      90.7      62.6       3       8     123     155    1010    0.00
    07/28/2015 13:50      23    47.9      9.78        90.4      90.8      62.6       3       8     137     165    1010    0.00
    07/28/2015 14:00      23    48.7      9.78        90.9      91.4      62.6       4       8      85      77    1010    0.00
    07/28/2015 14:10      23    48.7      9.78        91.5      91.9      62.6       4       9     166     165    1010    0.00
    07/28/2015 14:20      23    47.5      9.78        91.1      91.9      62.6       3       8     127     135    1010    0.00